x

Gulf Of Maine - 78 Nm East Of Portsmouth, Nh (44005) Wave Buoy

12:50am - Sat 21st Jan 2017 All times are EST. -5 hours from GMT.

  • Sig Wave height 3.9ft
  • Swell Direction
  • Peak Period 10s
  • Average Period 8s
  • Wind
    9mph, 13mph gusts
  • Sea Temp 46°f
  • 空気 Temp 39°f
  • Sea Pressure 1013mb
  • Gulf Of Maine - 78 Nm East Of Portsmouth, Nh
  • Gulf Of Maine - 78 Nm East Of Portsmouth, Nh

More Historic Weather Station data

Upgrade to MSW Pro to gain access to the past 30 days of data for over 8000 Wavebouys and Weather Stations around the globe.

Join Pro

Comparision Forecast

View Surf forecast
   
Sat 01/21 12:50am 4ft 10s 8s 9 13 mph 1013mb 46f 39f
Fri 01/20 11:50pm 4.5ft 11s 8s 9 11 mph 1013.4mb 46f 40f
10:50pm 4.5ft 9s 8s 7 9 mph 1014.2mb 46f 40f
9:50pm 4.5ft 10s 8s 7 11 mph 1014.2mb 46f 40f
8:50pm 4.5ft 10s 7s 7 9 mph 1014.5mb 46f 40f
7:50pm 4.5ft 10s 8s 4 7 mph 1014.6mb 46f 40f
6:50pm 4.5ft 10s 8s  -  2 mph 1014.5mb 46f 40f
5:50pm 3.5ft 10s 7s 2 4 mph 1014.8mb 46f 40f
4:50pm 4.5ft 10s 7s 2 4 mph 1014.7mb 46f 40f
3:50pm 3.5ft 11s 6s  -  4 mph 1014.8mb 46f 40f
2:50pm 4ft 10s 6s  -  4 mph 1014.6mb 46f 40f
1:50pm 4.5ft 11s 6s  -  2 mph 1015mb 46f 41f
12:50pm 4.5ft 11s 6s 2 7 mph 1015.3mb 46f 41f
11:50am 5ft 11s 7s 7 9 mph 1015.8mb 46f 41f
10:50am 5.5ft 11s 7s 11 13 mph 1016.4mb 46f 41f
9:50am 5.5ft 11s 7s 11 16 mph 1016.4mb 46f 44f
8:50am 5.5ft 11s 7s 13 18 mph 1016.3mb 46f 42f
7:50am 6ft 10s 7s 11 13 mph 1016.2mb 46f 41f
6:50am 6ft 10s 7s 11 13 mph 1016.2mb 46f 39f
5:50am 6ft 11s 6s 11 16 mph 1015.6mb 46f 38f
4:50am 7ft 11s 6s 16 20 mph 1014.8mb 46f 38f
3:50am 6ft 11s 6s 20 25 mph 1014.2mb 46f 39f
2:50am 6ft 11s 6s 18 22 mph 1014.4mb 46f 39f
1:50am 6.5ft 11s 6s 18 25 mph 1014.8mb 46f 40f
12:50am 6.5ft 11s 6s 18 22 mph 1015.6mb 46f 40f
Thu 01/19 11:50pm 7ft 11s 7s 18 22 mph 1015.6mb 46f 41f
10:50pm 7ft 11s 7s 18 22 mph 1015.5mb 46f 42f
9:50pm 7ft 11s 7s 16 20 mph 1015.3mb 46f 42f
8:50pm 7ft 11s 7s 18 22 mph 1014.9mb 46f 42f
7:50pm 7ft 10s 7s 18 22 mph 1014.4mb 46f 41f
6:50pm 7ft 10s 8s 18 22 mph 1014mb 46f 41f
5:50pm 6.5ft 9s 8s 11 18 mph 1013.8mb 46f 40f
4:50pm 5.5ft 10s 7s 9 11 mph 1013.5mb 46f 38f
3:50pm 5ft 8s 6s 9 13 mph 1013.1mb 46f 40f
2:50pm 5ft 10s 6s 11 16 mph 1013.1mb 46f 39f
1:50pm 5ft 8s 6s 16 20 mph 1013mb 46f 38f
12:50pm 6ft 10s 7s 11 16 mph 1013.3mb 46f 40f
11:50am 6.5ft 8s 7s 11 16 mph 1013.7mb 46f 41f
10:50am 6.5ft 8s 7s 9 11 mph 1014.7mb 46f 41f
9:50am 7ft 8s 7s 7 9 mph 1015.4mb 46f 41f
8:50am 6.5ft 8s 7s 7 11 mph 1015.5mb 46f 40f
7:50am 6.5ft 8s 7s 7 9 mph 1015.4mb 46f 40f
6:50am 6ft 8s 7s 4 9 mph 1015mb 46f 40f
5:50am 6ft 8s 6s 4 7 mph 1015mb 46f 39f
4:50am 6ft 8s 6s 2 4 mph 1015mb 46f 38f
3:50am 6ft 8s 6s 2 4 mph 1015.3mb 46f 38f
2:50am 6ft 8s 6s 11 13 mph 1014.5mb 46f 39f
1:50am 6ft 7s 6s 9 13 mph 1015.4mb 46f 39f
12:50am 6ft 7s 6s 11 13 mph 1015.8mb 46f 39f
Wed 01/18 11:50pm 6ft 8s 6s 11 16 mph 1015.9mb 46f 39f
10:50pm 7.5ft 8s 6s 13 16 mph 1016.3mb 46f 39f
9:50pm 7.5ft 8s 6s 16 18 mph 1016.7mb 46f 38f
8:50pm 8ft 8s 6s 16 20 mph 1017.1mb 46f 38f
7:50pm 8.5ft 8s 6s 18 22 mph 1017.4mb 46f 38f
6:50pm 8.5ft 9s 6s 20 27 mph 1017.2mb 46f 38f
5:50pm 9.5ft 9s 6s 22 27 mph 1016.7mb 46f 38f
4:50pm 10ft 8s 7s 22 27 mph 1016.3mb 46f 38f
3:50pm 9ft 8s 6s 22 27 mph 1015.9mb 46f 37f
2:50pm 10ft 8s 6s 22 29 mph 1015.9mb 46f 37f
1:50pm 11ft 8s 6s 25 29 mph 1015.5mb 46f 36f
12:50pm 11ft 8s 6s 27 31 mph 1015.4mb 46f 36f
11:50am 10ft 8s 6s 27 34 mph 1015.6mb 46f 36f
10:50am 9.5ft 8s 6s 27 31 mph 1016.9mb 46f 36f
9:50am 9ft 7s 6s 27 31 mph 1017.5mb 46f 36f
8:50am 7ft 6s 5s 27 31 mph 1017.6mb 46f 36f
7:50am 5.5ft 6s 5s 25 29 mph 1017.7mb 46f 36f
6:50am 5ft 5s 5s 25 29 mph 1017.5mb 46f 36f
5:50am 5ft 5s 4s 20 25 mph 1017.9mb 46f 36f
4:50am 4.5ft 5s 4s 25 27 mph 1017.7mb 46f 35f
3:50am 4.5ft 5s 4s 22 27 mph 1018.2mb 46f 35f
2:50am 4ft 5s 4s 20 22 mph 1019.5mb 46f 34f
1:50am 3.5ft 5s 4s 16 20 mph 1020.4mb 46f 34f
12:50am 3.5ft 5s 4s 18 25 mph 1021mb 46f 33f
Tue 01/17 11:50pm 3.5ft 5s 4s 20 25 mph 1021.1mb 46f 37f
10:50pm 3.5ft 4s 4s 20 25 mph 1021.9mb 46f 37f
9:50pm 3ft 5s 4s 18 25 mph 1022.7mb 46f 37f
8:50pm 2.5ft 4s 4s 16 20 mph 1023.4mb 46f 37f
7:50pm 2.5ft 4s 4s 16 20 mph 1023.6mb 46f 37f
6:50pm 2.5ft 5s 4s 18 22 mph 1023.4mb 46f 37f
5:50pm 2.5ft 5s 4s 16 18 mph 1023.7mb 46f 37f
4:50pm 2.5ft 5s 4s 11 16 mph 1024.2mb 46f 36f
3:50pm 2.5ft 5s 4s 11 16 mph 1023.6mb 46f 37f
2:50pm 3ft 5s 4s 11 16 mph 1023.3mb 46f 39f
1:50pm 3ft 5s 4s 13 16 mph 1022.7mb 46f 41f
12:50pm 3ft 4s 4s 16 18 mph 1023.4mb 46f 41f
11:50am 2.5ft 4s 4s 13 18 mph 1023.6mb 46f 41f
10:50am 2.5ft 4s 4s 18 22 mph 1023.9mb 46f 41f
9:50am 2.5ft 4s 4s 18 20 mph 1024.3mb 46f 42f
8:50am 3ft 5s 4s 16 18 mph 1024.1mb 46f 41f
7:50am 3.5ft 6s 4s 16 20 mph 1023.3mb 46f 41f
6:50am 3.5ft 6s 4s 11 16 mph 1022.5mb 46f 40f